createdAt,value
2022-10-15T00:03:41.129Z,1.17
2022-10-15T00:07:42.337Z,1.30
2022-10-15T00:11:43.452Z,1.23
2022-10-15T00:15:44.546Z,1.30
2022-10-15T00:19:45.660Z,1.00
2022-10-15T00:23:48.347Z,1.50
2022-10-15T00:27:49.554Z,1.60
2022-10-15T00:31:50.633Z,1.27
2022-10-15T00:36:03.050Z,1.50
2022-10-15T00:40:05.439Z,1.63
2022-10-15T00:44:28.719Z,1.83
2022-10-15T00:48:31.223Z,2.40
2022-10-15T00:52:45.276Z,1.93
2022-10-15T00:56:48.664Z,2.70
2022-10-15T01:00:49.807Z,2.87
2022-10-15T01:04:51.259Z,3.10
2022-10-15T01:08:52.734Z,2.80
2022-10-15T01:13:13.141Z,3.43
2022-10-15T01:17:38.072Z,2.80
2022-10-15T01:21:45.590Z,3.20
2022-10-15T01:25:56.141Z,3.07
2022-10-15T01:30:16.024Z,3.63
2022-10-15T01:34:24.004Z,3.57
2022-10-15T01:38:31.540Z,3.10
2022-10-15T01:42:36.551Z,3.67
2022-10-15T01:46:54.265Z,4.10
2022-10-15T01:50:59.197Z,3.90
2022-10-15T01:55:02.369Z,3.23
2022-10-15T01:59:05.999Z,4.70
2022-10-15T02:03:07.107Z,3.30
2022-10-15T02:07:14.683Z,3.60
2022-10-15T02:11:17.380Z,4.10
2022-10-15T02:15:33.987Z,3.83
2022-10-15T02:24:11.116Z,5.33
2022-10-15T02:28:14.812Z,5.70
2022-10-15T02:32:19.320Z,6.50
2022-10-15T02:36:21.313Z,5.77
2022-10-15T02:40:26.606Z,6.57
2022-10-15T02:44:27.791Z,6.73
2022-10-15T02:48:28.972Z,6.27
2022-10-15T02:52:30.164Z,5.73
2022-10-15T02:56:31.618Z,6.97
2022-10-15T03:00:32.963Z,5.87
2022-10-15T03:04:34.100Z,4.77
2022-10-15T03:08:35.590Z,5.27
2022-10-15T03:12:36.763Z,4.53
2022-10-15T03:16:37.948Z,5.30
2022-10-15T03:20:39.020Z,6.83
2022-10-15T03:24:40.247Z,7.47
2022-10-15T03:28:41.597Z,7.23
2022-10-15T03:36:44.583Z,7.27
2022-10-15T03:40:45.829Z,8.20
2022-10-15T03:44:47.195Z,8.90
2022-10-15T03:48:49.901Z,10.00
2022-10-15T03:52:51.057Z,9.97
2022-10-15T03:56:52.267Z,9.50
2022-10-15T04:00:53.505Z,10.67
2022-10-15T04:04:54.724Z,9.17
2022-10-15T04:08:55.924Z,10.43
2022-10-15T04:12:57.125Z,11.57
2022-10-15T04:16:58.401Z,10.80
2022-10-15T04:21:00.822Z,12.63
2022-10-15T04:25:01.899Z,12.07
2022-10-15T04:29:03.318Z,12.60
2022-10-15T04:33:04.486Z,13.70
2022-10-15T04:37:05.572Z,13.63
2022-10-15T04:41:09.393Z,13.60
2022-10-15T04:45:10.586Z,12.53
2022-10-15T04:49:11.979Z,12.20
2022-10-15T04:53:13.227Z,13.10
2022-10-15T04:57:14.848Z,12.13
2022-10-15T05:01:19.178Z,11.27
2022-10-15T05:05:20.267Z,10.50
2022-10-15T05:09:21.464Z,9.27
2022-10-15T05:13:22.788Z,11.03
2022-10-15T05:17:24.215Z,9.00
2022-10-15T05:21:26.305Z,7.77
2022-10-15T05:25:27.491Z,7.13
2022-10-15T05:29:28.643Z,7.80
2022-10-15T05:33:29.820Z,8.03
2022-10-15T05:37:31.010Z,6.70
2022-10-15T05:41:32.098Z,6.47
2022-10-15T05:45:33.284Z,6.73
2022-10-15T05:49:34.475Z,7.07
2022-10-15T05:53:35.997Z,6.60
2022-10-15T05:57:37.178Z,6.37
2022-10-15T06:01:38.410Z,6.40
2022-10-15T06:05:40.089Z,5.43
2022-10-15T06:09:41.256Z,5.93
2022-10-15T06:13:43.251Z,16.20
2022-10-15T06:17:44.432Z,8.77
2022-10-15T06:21:45.523Z,5.93
2022-10-15T06:25:46.808Z,5.40
2022-10-15T06:29:47.911Z,5.73
2022-10-15T06:33:49.084Z,4.90
2022-10-15T06:37:50.588Z,5.80
2022-10-15T06:41:51.788Z,8.67
2022-10-15T06:45:52.869Z,8.40
2022-10-15T06:49:54.052Z,6.33
2022-10-15T06:53:55.129Z,5.87
2022-10-15T06:57:56.839Z,5.57
2022-10-15T07:01:58.167Z,6.40
2022-10-15T07:06:03.751Z,6.73
2022-10-15T07:10:05.544Z,6.30
2022-10-15T07:14:06.770Z,5.40
2022-10-15T07:18:07.842Z,5.70
2022-10-15T07:22:09.630Z,5.00
2022-10-15T07:26:11.817Z,5.60
2022-10-15T07:30:12.955Z,6.20
2022-10-15T07:34:14.142Z,4.90
2022-10-15T07:38:17.244Z,6.10
2022-10-15T07:42:18.425Z,4.30
2022-10-15T07:46:19.610Z,9.07
2022-10-15T07:50:21.410Z,6.70
2022-10-15T07:54:22.531Z,6.50
2022-10-15T07:58:23.649Z,6.10
2022-10-15T08:02:25.928Z,6.80
2022-10-15T08:06:27.355Z,6.77
2022-10-15T08:10:28.851Z,7.20
2022-10-15T08:14:29.926Z,6.80
2022-10-15T08:18:31.026Z,5.47
2022-10-15T08:22:33.101Z,6.27
2022-10-15T08:26:34.901Z,6.40
2022-10-15T08:30:37.081Z,5.53
2022-10-15T08:34:38.270Z,4.97
2022-10-15T08:38:39.345Z,6.83
2022-10-15T08:42:42.635Z,5.37
2022-10-15T08:46:47.508Z,4.50
2022-10-15T08:51:01.005Z,4.30
2022-10-15T08:55:02.445Z,4.47
2022-10-15T08:59:23.990Z,5.53
2022-10-15T09:03:37.891Z,4.53
2022-10-15T09:07:52.109Z,5.13
2022-10-15T09:11:58.630Z,3.43
2022-10-15T09:16:04.232Z,4.47
2022-10-15T09:20:09.159Z,4.00
2022-10-15T09:24:12.561Z,4.37
2022-10-15T09:28:16.724Z,5.80
2022-10-15T09:32:38.607Z,3.83
2022-10-15T09:36:46.112Z,4.10
2022-10-15T09:41:11.334Z,3.57
2022-10-15T09:45:14.725Z,3.63
2022-10-15T09:49:19.235Z,3.40
2022-10-15T09:53:28.237Z,2.03
2022-10-15T09:57:32.539Z,2.70
2022-10-15T10:01:33.730Z,2.00
2022-10-15T10:05:36.618Z,2.00
2022-10-15T10:09:40.814Z,2.43
2022-10-15T10:14:00.128Z,2.10
2022-10-15T10:18:01.849Z,1.70
2022-10-15T10:22:18.616Z,2.47
2022-10-15T10:26:20.119Z,2.27
2022-10-15T10:30:22.016Z,2.00
2022-10-15T10:34:28.839Z,1.67
2022-10-15T10:38:36.759Z,1.90
2022-10-15T10:42:38.160Z,2.10
2022-10-15T10:46:39.325Z,2.33
2022-10-15T10:50:40.912Z,2.47
2022-10-15T10:58:43.123Z,2.27
2022-10-15T11:02:44.418Z,2.47
2022-10-15T11:06:55.347Z,2.47
2022-10-15T11:11:11.858Z,2.73
2022-10-15T11:15:28.416Z,3.10
2022-10-15T11:19:59.818Z,3.30
2022-10-15T11:23:57.739Z,3.00
2022-10-15T11:28:18.093Z,6.07
2022-10-15T11:32:54.567Z,3.27
2022-10-15T11:36:50.907Z,3.20
2022-10-15T11:41:19.091Z,3.30
2022-10-15T11:45:38.890Z,3.07
2022-10-15T11:50:06.686Z,2.50
2022-10-15T11:54:14.894Z,2.90
2022-10-15T11:58:35.123Z,3.10
2022-10-15T12:02:38.109Z,2.90
2022-10-15T12:06:43.408Z,2.87
2022-10-15T12:11:17.162Z,2.30
2022-10-15T12:15:31.182Z,5.20
2022-10-15T12:19:45.497Z,4.60
2022-10-15T12:23:46.695Z,3.20
2022-10-15T12:27:51.691Z,1.77
2022-10-15T12:31:55.790Z,1.90
2022-10-15T12:36:09.922Z,1.87
2022-10-15T12:40:27.537Z,1.97
2022-10-15T12:44:31.241Z,1.90
2022-10-15T12:48:38.983Z,32.20
2022-10-15T12:53:04.160Z,1.80
2022-10-15T12:57:33.868Z,2.33
2022-10-15T13:01:45.215Z,2.53
2022-10-15T13:05:47.891Z,1.53
2022-10-15T13:09:49.693Z,2.03
2022-10-15T13:13:54.616Z,1.80
2022-10-15T13:17:58.709Z,1.73
2022-10-15T13:22:05.286Z,1.80
2022-10-15T13:26:18.570Z,1.70
2022-10-15T13:30:19.890Z,5.60
2022-10-15T13:34:33.797Z,1.67
2022-10-15T13:38:37.979Z,1.77
2022-10-15T13:42:42.968Z,1.97
2022-10-15T13:46:44.185Z,1.17
2022-10-15T13:50:47.075Z,1.97
2022-10-15T13:54:48.288Z,2.93
2022-10-15T13:58:50.090Z,2.60
2022-10-15T14:03:14.057Z,1.83
2022-10-15T14:07:27.138Z,1.00
2022-10-15T14:11:29.854Z,1.20
2022-10-15T14:15:40.239Z,1.37
2022-10-15T14:19:54.535Z,1.40
2022-10-15T14:23:50.735Z,1.40
2022-10-15T14:27:52.429Z,1.37
2022-10-15T14:31:53.723Z,1.50
2022-10-15T14:36:19.943Z,1.60
2022-10-15T14:40:21.136Z,1.73
2022-10-15T14:44:22.318Z,1.73
2022-10-15T14:48:29.856Z,1.93
2022-10-15T14:56:34.795Z,1.60
2022-10-15T15:00:42.246Z,1.57
2022-10-15T15:04:47.503Z,2.00
2022-10-15T15:08:48.790Z,1.77
2022-10-15T15:12:53.120Z,2.10
2022-10-15T15:16:54.338Z,2.10
2022-10-15T15:20:59.382Z,1.93
2022-10-15T15:25:04.110Z,2.70
2022-10-15T15:29:13.756Z,5.20
2022-10-15T15:33:15.882Z,2.10
2022-10-15T15:37:22.502Z,1.70
2022-10-15T15:41:25.000Z,2.40
2022-10-15T15:45:27.516Z,1.83
2022-10-15T15:49:28.870Z,2.90
2022-10-15T15:53:30.540Z,1.83
2022-10-15T15:57:32.186Z,1.80
2022-10-15T16:01:33.441Z,2.00
2022-10-15T16:05:34.673Z,9.00
2022-10-15T16:09:36.403Z,1.67
2022-10-15T16:13:37.643Z,1.90
2022-10-15T16:17:38.894Z,2.97
2022-10-15T16:21:40.460Z,1.50
2022-10-15T16:25:41.955Z,1.60
2022-10-15T16:29:43.167Z,1.80
2022-10-15T16:33:44.835Z,2.10
2022-10-15T16:37:46.140Z,1.83
2022-10-15T16:41:47.306Z,1.83
2022-10-15T16:45:56.185Z,2.47
2022-10-15T16:49:57.421Z,2.07
2022-10-15T16:53:58.601Z,1.67
2022-10-15T16:57:59.733Z,1.70
2022-10-15T17:02:00.972Z,1.80
2022-10-15T17:06:05.555Z,2.23
2022-10-15T17:10:10.842Z,2.30
2022-10-15T17:14:14.342Z,2.10
2022-10-15T17:18:15.520Z,2.00
2022-10-15T17:22:16.698Z,1.50
2022-10-15T17:26:21.406Z,1.47
2022-10-15T17:30:22.669Z,5.67
2022-10-15T17:34:25.171Z,1.47
2022-10-15T17:38:26.394Z,1.67
2022-10-15T17:42:27.723Z,1.60
2022-10-15T17:46:30.184Z,2.13
2022-10-15T17:50:31.370Z,1.60
2022-10-15T17:54:32.583Z,1.93
2022-10-15T17:58:33.754Z,1.53
2022-10-15T18:02:34.993Z,1.90
2022-10-15T18:06:36.133Z,1.77
2022-10-15T18:10:37.329Z,1.30
2022-10-15T18:14:38.432Z,1.87
2022-10-15T18:18:39.643Z,1.60
2022-10-15T18:22:41.153Z,1.60
2022-10-15T18:26:43.350Z,1.70
2022-10-15T18:30:44.552Z,1.73
2022-10-15T18:34:45.743Z,1.67
2022-10-15T18:38:46.915Z,2.00
2022-10-15T18:42:48.114Z,1.57
2022-10-15T18:46:50.497Z,1.90
2022-10-15T18:50:53.575Z,2.07
2022-10-15T18:54:54.668Z,2.27
2022-10-15T18:58:56.067Z,2.93
2022-10-15T19:02:57.160Z,2.10
2022-10-15T19:07:00.263Z,1.90
2022-10-15T19:11:05.991Z,1.73
2022-10-15T19:15:08.380Z,3.47
2022-10-15T19:19:12.275Z,2.50
2022-10-15T19:23:13.468Z,4.50
2022-10-15T19:27:14.684Z,5.77
2022-10-15T19:31:19.674Z,3.30
2022-10-15T19:35:21.068Z,2.10
2022-10-15T19:39:23.282Z,2.33
2022-10-15T19:43:24.598Z,6.60
2022-10-15T19:47:26.020Z,7.30
2022-10-15T19:51:27.726Z,1.90
2022-10-15T19:55:28.902Z,1.70
2022-10-15T19:59:30.209Z,2.20
2022-10-15T20:03:32.097Z,1.83
2022-10-15T20:07:33.601Z,1.87
2022-10-15T20:11:35.975Z,4.97
2022-10-15T20:15:44.331Z,2.37
2022-10-15T20:19:47.159Z,9.53
2022-10-15T20:23:48.316Z,5.37
2022-10-15T20:27:49.580Z,2.80
2022-10-15T20:31:51.395Z,2.20
2022-10-15T20:35:52.577Z,1.80
2022-10-15T20:39:53.817Z,2.37
2022-10-15T20:43:56.064Z,2.37
2022-10-15T20:47:57.871Z,4.23
2022-10-15T20:51:59.145Z,4.30
2022-10-15T20:56:00.925Z,5.00
2022-10-15T21:00:03.567Z,5.33
2022-10-15T21:04:05.162Z,3.80
2022-10-15T21:08:06.359Z,5.90
2022-10-15T21:12:09.386Z,3.57
2022-10-15T21:16:10.713Z,4.50
2022-10-15T21:20:11.880Z,2.30
2022-10-15T21:24:14.060Z,5.27
2022-10-15T21:28:15.354Z,8.17
2022-10-15T21:32:16.461Z,5.17
2022-10-15T21:36:24.297Z,4.50
2022-10-15T21:40:25.507Z,6.50
2022-10-15T21:44:27.097Z,5.43
2022-10-15T21:48:28.353Z,2.87
2022-10-15T21:52:29.858Z,2.40
2022-10-15T21:56:31.185Z,1.83
2022-10-15T22:00:32.357Z,2.93
2022-10-15T22:04:34.360Z,2.17
2022-10-15T22:08:36.045Z,1.63
2022-10-15T22:12:37.324Z,1.70
2022-10-15T22:16:40.123Z,2.40
2022-10-15T22:24:42.405Z,2.97
2022-10-15T22:28:44.309Z,3.90
2022-10-15T22:32:45.446Z,3.80
2022-10-15T22:36:47.016Z,4.40
2022-10-15T22:40:53.998Z,4.40
2022-10-15T22:44:55.093Z,4.50
2022-10-15T22:48:56.370Z,4.30
2022-10-15T22:52:57.458Z,5.80
2022-10-15T22:56:58.745Z,4.30
2022-10-15T23:01:24.614Z,4.07
2022-10-15T23:05:26.050Z,3.30
2022-10-15T23:09:29.627Z,4.30
2022-10-15T23:13:31.192Z,3.20
2022-10-15T23:17:32.698Z,2.97
2022-10-15T23:21:46.646Z,3.10
2022-10-15T23:25:47.877Z,2.90
2022-10-15T23:29:56.878Z,3.07
2022-10-15T23:33:53.257Z,2.93
2022-10-15T23:37:54.438Z,3.17
2022-10-15T23:41:55.626Z,3.30
2022-10-15T23:45:57.814Z,3.67
2022-10-15T23:49:58.920Z,3.13
2022-10-15T23:54:01.509Z,2.93
2022-10-15T23:58:02.698Z,2.80
